createdAt,value
2018-03-06T00:04:33.209Z,67.2
2018-03-06T00:21:09.649Z,67.6
2018-03-06T00:37:41.721Z,67.2
2018-03-06T00:54:16.124Z,68.0
2018-03-06T01:10:50.303Z,68.0
2018-03-06T01:27:24.434Z,68.4
2018-03-06T01:43:58.874Z,68.4
2018-03-06T02:00:32.870Z,68.8
2018-03-06T02:17:06.762Z,69.2
2018-03-06T02:33:40.848Z,69.2
2018-03-06T02:50:14.431Z,69.2
2018-03-06T03:06:48.928Z,69.6
2018-03-06T03:23:22.558Z,69.6
2018-03-06T03:39:56.375Z,70.0
2018-03-06T03:56:29.556Z,70.0
2018-03-06T04:13:03.431Z,70.4
2018-03-06T04:29:36.848Z,70.8
2018-03-06T04:46:10.256Z,70.8
2018-03-06T05:02:43.652Z,71.2
2018-03-06T05:19:17.504Z,71.2
2018-03-06T05:35:50.278Z,71.6
2018-03-06T05:52:24.032Z,72.0
2018-03-06T06:08:58.425Z,71.6
2018-03-06T06:25:31.902Z,72.0
2018-03-06T06:42:04.662Z,72.8
2018-03-06T06:58:38.189Z,72.8
2018-03-06T07:15:12.423Z,72.4
2018-03-06T07:31:45.969Z,72.4
2018-03-06T07:40:03.477Z,72.4
2018-03-06T07:56:37.915Z,72.0
2018-03-06T08:09:54.056Z,72.4
2018-03-06T08:26:30.600Z,71.6
2018-03-06T08:36:28.174Z,71.6
2018-03-06T08:46:25.374Z,70.8
2018-03-06T08:56:23.059Z,70.4
2018-03-06T09:06:21.186Z,70.0
2018-03-06T09:22:58.719Z,68.4
2018-03-06T09:29:37.602Z,68.4
2018-03-06T09:46:15.608Z,66.8
2018-03-06T09:56:14.837Z,67.2
2018-03-06T10:09:33.628Z,66.0
2018-03-06T10:26:14.833Z,63.6
2018-03-06T10:39:32.699Z,63.2
2018-03-06T10:56:12.539Z,62.0
2018-03-06T11:09:33.482Z,61.2
2018-03-06T11:22:53.682Z,59.2
2018-03-06T11:39:35.724Z,59.2
2018-03-06T11:56:16.774Z,58.4
2018-03-06T12:12:58.798Z,58.0
2018-03-06T12:29:39.765Z,57.2
2018-03-06T12:46:22.919Z,56.4
2018-03-06T13:03:03.809Z,56.0
2018-03-06T13:19:46.136Z,55.6
2018-03-06T13:36:28.358Z,55.2
2018-03-06T13:53:11.909Z,54.4
2018-03-06T14:09:52.933Z,54.4
2018-03-06T14:43:18.326Z,54.0
2018-03-06T15:00:00.116Z,54.0
2018-03-06T15:16:43.515Z,54.4
2018-03-06T15:33:25.557Z,54.4
2018-03-06T15:46:46.326Z,54.4
2018-03-06T16:03:27.833Z,54.8
2018-03-06T16:20:09.267Z,55.2
2018-03-06T16:36:51.081Z,56.0
2018-03-06T16:53:31.615Z,56.4
2018-03-06T17:10:12.559Z,56.8
2018-03-06T17:26:53.888Z,57.6
2018-03-06T17:43:33.409Z,58.0
2018-03-06T18:00:13.148Z,58.8
2018-03-06T18:16:53.140Z,59.2
2018-03-06T18:33:32.331Z,59.6
2018-03-06T18:50:12.121Z,60.0
2018-03-06T19:06:51.473Z,60.8
2018-03-06T19:23:30.881Z,61.6
2018-03-06T19:40:10.029Z,62.0
2018-03-06T19:56:49.060Z,62.8
2018-03-06T20:13:28.208Z,62.8
2018-03-06T20:30:07.305Z,63.2
2018-03-06T20:46:46.309Z,63.6
2018-03-06T21:03:24.686Z,64.0
2018-03-06T21:20:02.969Z,64.8
2018-03-06T21:36:42.878Z,65.2
2018-03-06T21:53:20.197Z,65.6
2018-03-06T22:26:35.579Z,66.4
2018-03-06T22:43:13.966Z,66.8
2018-03-06T22:59:50.479Z,67.2
2018-03-06T23:16:27.654Z,67.2
2018-03-06T23:33:05.717Z,67.6
2018-03-06T23:49:44.119Z,67.6
